createdAt,value
2022-09-07T00:01:53.473Z,1.00
2022-09-07T00:04:20.221Z,1.00
2022-09-07T00:06:46.925Z,1.00
2022-09-07T00:09:13.684Z,1.00
2022-09-07T00:11:40.389Z,1.00
2022-09-07T00:14:07.759Z,1.00
2022-09-07T00:16:34.651Z,1.00
2022-09-07T00:19:03.678Z,1.00
2022-09-07T00:21:30.993Z,1.00
2022-09-07T00:23:57.781Z,1.00
2022-09-07T00:26:27.144Z,1.00
2022-09-07T00:28:57.459Z,1.00
2022-09-07T00:31:24.780Z,1.00
2022-09-07T00:33:52.519Z,1.00
2022-09-07T00:36:20.111Z,1.00
2022-09-07T00:38:47.356Z,1.00
2022-09-07T00:41:14.816Z,1.00
2022-09-07T00:43:50.487Z,1.00
2022-09-07T00:46:22.952Z,1.00
2022-09-07T00:49:13.119Z,1.00
2022-09-07T00:51:44.093Z,1.00
2022-09-07T00:54:22.530Z,1.00
2022-09-07T00:56:50.486Z,1.00
2022-09-07T00:59:21.803Z,1.00
2022-09-07T01:01:48.725Z,1.00
2022-09-07T01:04:16.245Z,1.00
2022-09-07T01:06:43.543Z,1.00
2022-09-07T01:09:12.969Z,1.00
2022-09-07T01:11:39.938Z,1.00
2022-09-07T01:14:08.682Z,1.00
2022-09-07T01:17:05.770Z,1.00
2022-09-07T01:20:03.812Z,1.00
2022-09-07T01:22:33.248Z,1.00
2022-09-07T01:25:26.525Z,1.00
2022-09-07T01:28:23.193Z,1.00
2022-09-07T01:30:57.597Z,1.00
2022-09-07T01:33:44.510Z,1.00
2022-09-07T01:36:38.797Z,1.00
2022-09-07T01:39:06.466Z,1.00
2022-09-07T01:42:01.074Z,1.00
2022-09-07T01:44:32.400Z,1.00
2022-09-07T01:47:09.493Z,1.00
2022-09-07T01:49:56.173Z,1.00
2022-09-07T01:52:54.879Z,1.00
2022-09-07T01:55:34.380Z,1.00
2022-09-07T01:58:06.837Z,1.00
2022-09-07T02:00:34.816Z,1.00
2022-09-07T02:03:11.358Z,1.00
2022-09-07T02:05:45.629Z,1.00
2022-09-07T02:08:20.929Z,1.00
2022-09-07T02:11:02.274Z,1.00
2022-09-07T02:13:36.096Z,1.00
2022-09-07T02:16:07.634Z,1.00
2022-09-07T02:18:39.539Z,1.00
2022-09-07T02:21:08.070Z,1.00
2022-09-07T02:23:40.255Z,1.00
2022-09-07T02:26:12.310Z,1.00
2022-09-07T02:28:39.678Z,1.00
2022-09-07T02:31:06.641Z,1.00
2022-09-07T02:33:33.438Z,1.00
2022-09-07T02:36:01.480Z,1.00
2022-09-07T02:38:28.227Z,1.00
2022-09-07T02:40:56.662Z,1.00
2022-09-07T02:43:24.863Z,1.00
2022-09-07T02:46:18.985Z,1.00
2022-09-07T02:49:08.104Z,1.00
2022-09-07T02:52:04.136Z,1.00
2022-09-07T02:54:58.156Z,1.00
2022-09-07T02:58:00.738Z,1.00
2022-09-07T03:00:31.212Z,1.00
2022-09-07T03:03:12.160Z,1.00
2022-09-07T03:05:47.499Z,1.00
2022-09-07T03:08:20.813Z,1.00
2022-09-07T03:10:48.055Z,1.00
2022-09-07T03:13:26.776Z,1.00
2022-09-07T03:15:56.231Z,1.00
2022-09-07T03:18:24.355Z,1.00
2022-09-07T03:20:51.116Z,1.00
2022-09-07T03:23:17.794Z,1.00
2022-09-07T03:25:44.480Z,1.00
2022-09-07T03:28:11.348Z,1.00
2022-09-07T03:30:42.806Z,1.00
2022-09-07T03:33:09.976Z,1.00
2022-09-07T03:35:36.634Z,1.00
2022-09-07T03:38:03.296Z,1.00
2022-09-07T03:40:30.116Z,1.00
2022-09-07T03:42:56.795Z,1.00
2022-09-07T03:45:23.454Z,1.00
2022-09-07T03:47:51.142Z,1.00
2022-09-07T03:50:17.875Z,1.00
2022-09-07T03:52:44.853Z,1.00
2022-09-07T03:55:11.554Z,1.00
2022-09-07T03:57:39.115Z,1.00
2022-09-07T04:00:06.293Z,1.00
2022-09-07T04:02:33.129Z,1.00
2022-09-07T04:04:59.898Z,1.00
2022-09-07T04:07:26.540Z,1.00
2022-09-07T04:09:53.210Z,1.00
2022-09-07T04:12:19.954Z,1.00
2022-09-07T04:14:47.186Z,1.00
2022-09-07T04:17:13.894Z,1.00
2022-09-07T04:19:40.604Z,1.00
2022-09-07T04:22:07.251Z,1.00
2022-09-07T04:24:33.933Z,1.00
2022-09-07T04:27:02.041Z,1.00
2022-09-07T04:29:28.717Z,1.00
2022-09-07T04:31:55.403Z,1.00
2022-09-07T04:34:22.109Z,1.00
2022-09-07T04:36:48.963Z,1.00
2022-09-07T04:39:15.613Z,1.00
2022-09-07T04:41:42.403Z,1.00
2022-09-07T04:44:12.612Z,1.00
2022-09-07T04:46:42.880Z,1.00
2022-09-07T04:49:11.130Z,1.00
2022-09-07T04:51:38.791Z,1.00
2022-09-07T04:54:06.218Z,1.00
2022-09-07T04:56:33.090Z,1.00
2022-09-07T04:59:01.225Z,1.00
2022-09-07T05:01:28.744Z,1.00
2022-09-07T05:03:55.528Z,1.00
2022-09-07T05:06:23.128Z,1.00
2022-09-07T05:08:51.646Z,1.00
2022-09-07T05:11:21.216Z,1.00
2022-09-07T05:13:49.921Z,1.00
2022-09-07T05:16:22.747Z,1.00
2022-09-07T05:18:51.201Z,1.00
2022-09-07T05:21:23.804Z,1.00
2022-09-07T05:23:52.486Z,1.00
2022-09-07T05:26:20.478Z,1.00
2022-09-07T05:28:47.159Z,1.00
2022-09-07T05:36:39.249Z,1.00
2022-09-07T05:39:07.068Z,1.00
2022-09-07T05:41:33.815Z,1.00
2022-09-07T05:46:47.189Z,1.00
2022-09-07T05:49:13.898Z,1.00
2022-09-07T05:51:41.102Z,1.00
2022-09-07T05:54:07.893Z,1.00
2022-09-07T05:56:37.330Z,1.00
2022-09-07T05:59:04.250Z,1.00
2022-09-07T06:01:31.732Z,1.00
2022-09-07T06:03:58.786Z,1.00
2022-09-07T06:06:25.498Z,1.00
2022-09-07T06:08:53.267Z,1.00
2022-09-07T06:11:24.203Z,1.00
2022-09-07T06:13:51.972Z,1.00
2022-09-07T06:16:19.729Z,1.00
2022-09-07T06:18:48.644Z,1.00
2022-09-07T06:21:17.901Z,1.00
2022-09-07T06:23:45.976Z,1.00
2022-09-07T06:26:13.752Z,1.00
2022-09-07T06:28:42.389Z,1.00
2022-09-07T06:31:11.638Z,1.00
2022-09-07T06:33:38.338Z,1.00
2022-09-07T06:36:07.597Z,1.00
2022-09-07T06:38:36.835Z,1.00
2022-09-07T06:43:59.474Z,1.00
2022-09-07T06:49:13.756Z,1.00
2022-09-07T06:51:40.416Z,1.00
2022-09-07T06:56:53.800Z,1.00
2022-09-07T06:59:20.514Z,1.00
2022-09-07T07:01:47.301Z,1.00
2022-09-07T07:04:14.451Z,1.00
2022-09-07T07:06:41.152Z,1.00
2022-09-07T07:09:08.896Z,1.00
2022-09-07T07:11:37.561Z,1.00
2022-09-07T07:14:04.483Z,1.00
2022-09-07T07:16:31.572Z,1.00
2022-09-07T07:18:58.429Z,1.00
2022-09-07T07:21:25.172Z,1.00
2022-09-07T07:23:52.857Z,1.00
2022-09-07T07:26:26.720Z,1.00
2022-09-07T07:29:03.712Z,1.00
2022-09-07T07:31:33.133Z,1.00
2022-09-07T07:33:59.861Z,1.00
2022-09-07T07:36:28.135Z,1.00
2022-09-07T07:44:18.289Z,1.00
2022-09-07T07:46:48.702Z,1.00
2022-09-07T07:49:15.990Z,1.00
2022-09-07T07:54:29.348Z,1.00
2022-09-07T07:56:56.128Z,1.00
2022-09-07T07:59:23.010Z,1.00
2022-09-07T08:01:49.807Z,1.00
2022-09-07T08:04:16.781Z,1.00
2022-09-07T08:06:43.562Z,1.00
2022-09-07T08:09:11.247Z,1.00
2022-09-07T08:11:40.139Z,1.00
2022-09-07T08:14:08.617Z,1.00
2022-09-07T08:16:36.324Z,1.00
2022-09-07T08:19:03.350Z,1.00
2022-09-07T08:21:30.005Z,1.00
2022-09-07T08:23:56.720Z,1.00
2022-09-07T08:26:23.420Z,1.00
2022-09-07T08:28:50.085Z,1.00
2022-09-07T08:31:17.426Z,1.00
2022-09-07T08:33:44.881Z,1.00
2022-09-07T08:36:15.688Z,1.00
2022-09-07T08:38:42.485Z,1.00
2022-09-07T08:41:32.059Z,1.00
2022-09-07T08:44:23.524Z,1.00
2022-09-07T08:46:57.454Z,1.00
2022-09-07T08:49:30.342Z,1.00
2022-09-07T08:52:08.588Z,1.00
2022-09-07T08:54:36.193Z,1.00
2022-09-07T09:00:07.750Z,1.00
2022-09-07T09:02:42.019Z,1.00
2022-09-07T09:05:34.867Z,1.00
2022-09-07T09:08:15.017Z,1.00
2022-09-07T09:11:07.545Z,1.00
2022-09-07T09:13:54.904Z,1.00
2022-09-07T09:16:44.252Z,1.00
2022-09-07T09:19:39.692Z,1.00
2022-09-07T09:22:19.196Z,1.00
2022-09-07T09:24:49.024Z,1.00
2022-09-07T09:27:16.058Z,1.00
2022-09-07T09:29:42.838Z,1.00
2022-09-07T09:32:39.823Z,1.00
2022-09-07T09:35:16.662Z,1.00
2022-09-07T09:37:44.160Z,1.00
2022-09-07T09:40:28.245Z,1.00
2022-09-07T09:43:16.820Z,1.00
2022-09-07T09:48:36.570Z,1.00
2022-09-07T09:54:07.667Z,99.90
2022-09-07T09:56:39.448Z,1.00
2022-09-07T10:05:42.280Z,99.90
2022-09-07T10:08:37.060Z,99.90
2022-09-07T10:11:12.406Z,99.90
2022-09-07T10:13:54.862Z,99.90
2022-09-07T10:16:38.487Z,99.90
2022-09-07T10:19:05.123Z,27.20
2022-09-07T10:21:32.192Z,99.90
2022-09-07T10:24:00.224Z,1.00
2022-09-07T10:26:31.594Z,1.00
2022-09-07T10:29:13.372Z,99.90
2022-09-07T10:31:47.735Z,1.00
2022-09-07T10:34:35.492Z,76.00
2022-09-07T10:37:04.775Z,1.00
2022-09-07T10:39:34.771Z,1.00
2022-09-07T10:42:26.160Z,1.00
2022-09-07T10:45:21.140Z,1.00
2022-09-07T10:48:09.058Z,1.00
2022-09-07T10:50:53.413Z,1.10
2022-09-07T10:53:44.186Z,4.20
2022-09-07T10:56:13.150Z,99.90
2022-09-07T10:59:10.466Z,99.90
2022-09-07T11:02:17.539Z,99.90
2022-09-07T11:05:04.233Z,99.90
2022-09-07T11:08:04.819Z,66.10
2022-09-07T11:10:48.857Z,1.00
2022-09-07T11:13:23.234Z,1.00
2022-09-07T11:15:54.833Z,1.00
2022-09-07T11:18:52.963Z,99.90
2022-09-07T11:24:34.159Z,1.00
2022-09-07T11:27:06.566Z,1.00
2022-09-07T11:29:38.720Z,1.00
2022-09-07T11:32:09.727Z,1.00
2022-09-07T11:35:06.355Z,99.90
2022-09-07T11:37:43.721Z,6.20
2022-09-07T11:40:21.585Z,99.90
2022-09-07T11:43:14.875Z,99.90
2022-09-07T11:45:50.457Z,1.00
2022-09-07T11:48:33.405Z,99.90
2022-09-07T11:51:04.892Z,99.90
2022-09-07T11:53:37.446Z,99.90
2022-09-07T11:56:18.550Z,99.90
2022-09-07T11:59:09.806Z,99.90
2022-09-07T12:02:09.155Z,1.00
2022-09-07T12:05:07.568Z,99.90
2022-09-07T12:08:02.121Z,99.90
2022-09-07T12:10:50.267Z,99.90
2022-09-07T12:13:40.032Z,99.90
2022-09-07T12:16:19.878Z,1.00
2022-09-07T12:19:01.618Z,1.00
2022-09-07T12:21:40.404Z,1.00
2022-09-07T12:24:44.508Z,1.00
2022-09-07T12:27:31.431Z,99.90
2022-09-07T12:29:58.030Z,99.90
2022-09-07T12:32:56.928Z,99.90
2022-09-07T12:35:30.901Z,1.00
2022-09-07T12:37:58.765Z,1.40
2022-09-07T12:40:32.175Z,1.00
2022-09-07T12:43:13.924Z,99.90
2022-09-07T12:45:40.512Z,99.90
2022-09-07T12:48:16.027Z,70.10
2022-09-07T12:54:18.077Z,99.90
2022-09-07T13:00:04.275Z,99.90
2022-09-07T13:02:42.898Z,99.90
2022-09-07T13:05:52.857Z,1.00
2022-09-07T13:08:28.473Z,99.90
2022-09-07T13:10:55.193Z,1.00
2022-09-07T13:16:14.450Z,1.00
2022-09-07T13:18:42.502Z,39.40
2022-09-07T13:21:09.158Z,1.00
2022-09-07T13:23:49.430Z,1.00
2022-09-07T13:26:51.325Z,1.00
2022-09-07T13:29:21.908Z,99.90
2022-09-07T13:35:23.944Z,1.00
2022-09-07T13:37:59.712Z,1.00
2022-09-07T13:40:28.709Z,1.00
2022-09-07T13:42:56.320Z,99.90
2022-09-07T13:45:34.171Z,1.00
2022-09-07T13:48:01.533Z,99.90
2022-09-07T13:50:36.664Z,99.90
2022-09-07T13:53:09.290Z,99.90
2022-09-07T13:55:46.447Z,1.00
2022-09-07T13:58:17.970Z,1.00
2022-09-07T14:00:55.067Z,1.00
2022-09-07T14:03:23.728Z,99.90
2022-09-07T14:06:33.591Z,99.90
2022-09-07T14:09:20.479Z,1.00
2022-09-07T14:11:49.870Z,99.90
2022-09-07T14:14:19.330Z,99.90
2022-09-07T14:16:49.423Z,99.90
2022-09-07T14:19:24.313Z,99.90
2022-09-07T14:21:55.951Z,99.90
2022-09-07T14:24:40.526Z,99.90
2022-09-07T14:27:25.949Z,7.40
2022-09-07T14:29:53.007Z,1.00
2022-09-07T14:32:27.140Z,1.00
2022-09-07T14:34:54.245Z,1.00
2022-09-07T14:37:23.167Z,1.00
2022-09-07T14:39:51.054Z,1.00
2022-09-07T14:42:22.896Z,1.00
2022-09-07T14:44:50.225Z,1.00
2022-09-07T14:47:30.413Z,1.00
2022-09-07T14:50:04.185Z,1.00
2022-09-07T14:52:44.159Z,1.00
2022-09-07T14:55:35.942Z,1.00
2022-09-07T14:58:08.697Z,1.00
2022-09-07T15:00:35.496Z,1.00
2022-09-07T15:06:02.950Z,1.00
2022-09-07T15:08:41.822Z,1.00
2022-09-07T15:14:08.718Z,1.00
2022-09-07T15:16:38.600Z,1.00
2022-09-07T15:19:18.540Z,1.00
2022-09-07T15:21:45.601Z,1.00
2022-09-07T15:24:12.528Z,1.00
2022-09-07T15:29:32.498Z,1.00
2022-09-07T15:32:04.932Z,1.00
2022-09-07T15:34:34.364Z,1.00
2022-09-07T15:37:01.857Z,1.00
2022-09-07T15:39:35.550Z,1.00
2022-09-07T15:42:59.486Z,1.00
2022-09-07T15:44:50.291Z,1.00
2022-09-07T15:50:05.942Z,1.00
2022-09-07T15:52:32.962Z,1.00
2022-09-07T15:54:59.903Z,1.00
2022-09-07T16:00:16.404Z,1.00
2022-09-07T16:05:31.448Z,1.00
2022-09-07T16:10:53.519Z,1.00
2022-09-07T16:13:24.548Z,1.00
2022-09-07T16:16:02.322Z,1.00
2022-09-07T16:18:31.372Z,1.00
2022-09-07T16:21:12.406Z,1.00
2022-09-07T16:23:48.861Z,1.00
2022-09-07T16:26:17.787Z,1.00
2022-09-07T16:28:46.762Z,1.00
2022-09-07T16:34:49.604Z,1.00
2022-09-07T16:37:17.080Z,1.00
2022-09-07T16:39:44.083Z,1.00
2022-09-07T16:42:10.946Z,1.00
2022-09-07T16:44:37.693Z,1.00
2022-09-07T16:47:04.599Z,1.00
2022-09-07T16:49:31.564Z,1.00
2022-09-07T16:51:59.111Z,1.00
2022-09-07T16:54:26.492Z,1.00
2022-09-07T16:56:53.408Z,1.00
2022-09-07T16:59:26.152Z,1.00
2022-09-07T17:01:53.493Z,1.00
2022-09-07T17:04:20.607Z,1.00
2022-09-07T17:06:47.406Z,1.00
2022-09-07T17:09:14.778Z,1.00
2022-09-07T17:11:42.336Z,1.00
2022-09-07T17:14:09.181Z,1.00
2022-09-07T17:16:38.630Z,1.00
2022-09-07T17:21:55.481Z,1.00
2022-09-07T17:24:24.767Z,1.00
2022-09-07T17:26:53.270Z,1.00
2022-09-07T17:29:32.421Z,1.00
2022-09-07T17:35:09.497Z,1.00
2022-09-07T17:37:52.317Z,1.00
2022-09-07T17:40:24.384Z,1.00
2022-09-07T17:45:42.759Z,1.00
2022-09-07T17:48:10.004Z,1.00
2022-09-07T17:50:37.035Z,1.00
2022-09-07T17:53:03.852Z,1.00
2022-09-07T17:55:32.003Z,1.00
2022-09-07T17:58:04.895Z,1.00
2022-09-07T18:00:31.721Z,1.00
2022-09-07T18:02:59.026Z,23.70
2022-09-07T18:05:26.049Z,2.40
2022-09-07T18:07:52.828Z,1.00
2022-09-07T18:10:19.658Z,14.60
2022-09-07T18:12:47.923Z,7.10
2022-09-07T18:15:16.114Z,24.80
2022-09-07T18:17:42.771Z,67.70
2022-09-07T18:20:09.599Z,64.40
2022-09-07T18:22:36.391Z,64.90
2022-09-07T18:25:03.799Z,96.90
2022-09-07T18:27:31.087Z,99.90
2022-09-07T18:29:57.744Z,99.90
2022-09-07T18:32:24.392Z,99.90
2022-09-07T18:34:51.107Z,99.90
2022-09-07T18:37:19.239Z,99.90
2022-09-07T18:39:46.686Z,99.90
2022-09-07T18:42:13.300Z,99.90
2022-09-07T18:47:29.392Z,99.90
2022-09-07T18:49:57.003Z,99.90
2022-09-07T18:55:10.551Z,1.00
2022-09-07T18:57:37.797Z,1.00
2022-09-07T19:00:07.190Z,1.00
2022-09-07T19:02:33.968Z,1.00
2022-09-07T19:07:47.337Z,1.00
2022-09-07T19:10:16.198Z,1.00
2022-09-07T19:12:45.909Z,1.00
2022-09-07T19:15:13.239Z,1.00
2022-09-07T19:17:40.130Z,1.00
2022-09-07T19:20:07.099Z,1.00
2022-09-07T19:22:33.750Z,1.00
2022-09-07T19:25:00.378Z,1.00
2022-09-07T19:27:27.778Z,1.00
2022-09-07T19:29:54.399Z,1.00
2022-09-07T19:32:21.818Z,1.00
2022-09-07T19:34:54.296Z,16.10
2022-09-07T19:37:25.467Z,59.20
2022-09-07T19:39:55.030Z,99.90
2022-09-07T19:42:22.445Z,99.90
2022-09-07T19:44:49.320Z,99.90
2022-09-07T19:47:16.172Z,99.90
2022-09-07T19:49:42.915Z,99.90
2022-09-07T19:52:09.605Z,99.90
2022-09-07T19:54:37.106Z,99.90
2022-09-07T19:57:05.035Z,99.90
2022-09-07T19:59:31.657Z,99.90
2022-09-07T20:01:58.285Z,1.00
2022-09-07T20:04:25.019Z,1.00
2022-09-07T20:06:52.352Z,1.00
2022-09-07T20:09:19.964Z,1.00
2022-09-07T20:11:47.699Z,1.00
2022-09-07T20:14:15.589Z,1.00
2022-09-07T20:16:42.415Z,1.00
2022-09-07T20:19:11.631Z,39.90
2022-09-07T20:21:38.256Z,95.50
2022-09-07T20:24:05.149Z,99.90
2022-09-07T20:26:32.501Z,99.90
2022-09-07T20:29:16.770Z,99.90
2022-09-07T20:31:46.791Z,99.90
2022-09-07T20:34:13.766Z,99.90
2022-09-07T20:36:40.477Z,99.90
2022-09-07T20:39:07.235Z,1.00
2022-09-07T20:41:34.273Z,1.00
2022-09-07T20:44:02.563Z,1.00
2022-09-07T20:46:32.435Z,1.00
2022-09-07T20:48:59.166Z,1.00
2022-09-07T20:51:26.056Z,75.00
2022-09-07T20:53:52.894Z,99.90
2022-09-07T20:56:20.515Z,99.90
2022-09-07T20:58:48.345Z,99.90
2022-09-07T21:01:17.821Z,99.90
2022-09-07T21:03:49.574Z,1.00
2022-09-07T21:06:17.045Z,1.00
2022-09-07T21:08:44.673Z,1.00
2022-09-07T21:11:15.581Z,1.00
2022-09-07T21:13:42.664Z,1.00
2022-09-07T21:16:11.704Z,1.00
2022-09-07T21:18:39.839Z,1.00
2022-09-07T21:21:22.154Z,1.00
2022-09-07T21:23:49.041Z,99.90
2022-09-07T21:26:20.164Z,99.90
2022-09-07T21:28:46.774Z,99.90
2022-09-07T21:31:13.477Z,99.90
2022-09-07T21:33:40.168Z,1.00
2022-09-07T21:36:09.683Z,1.00
2022-09-07T21:38:37.359Z,1.00
2022-09-07T21:41:12.158Z,1.00
2022-09-07T21:43:39.368Z,1.00
2022-09-07T21:46:13.709Z,1.00
2022-09-07T21:48:40.388Z,1.00
2022-09-07T21:51:07.429Z,99.90
2022-09-07T21:53:34.720Z,99.90
2022-09-07T21:56:04.602Z,99.90
2022-09-07T21:58:31.916Z,99.90
2022-09-07T22:01:00.756Z,99.90
2022-09-07T22:03:27.536Z,1.00
2022-09-07T22:05:54.223Z,1.00
2022-09-07T22:08:20.891Z,1.00
2022-09-07T22:10:47.690Z,1.00
2022-09-07T22:13:14.300Z,1.00
2022-09-07T22:15:41.554Z,99.90
2022-09-07T22:18:11.439Z,99.90
2022-09-07T22:20:38.062Z,99.90
2022-09-07T22:23:07.835Z,99.90
2022-09-07T22:25:34.927Z,1.00
2022-09-07T22:28:01.693Z,1.00
2022-09-07T22:30:28.339Z,1.00
2022-09-07T22:32:54.960Z,13.00
2022-09-07T22:35:24.010Z,99.90
2022-09-07T22:37:50.648Z,99.90
2022-09-07T22:40:17.415Z,99.90
2022-09-07T22:42:44.042Z,99.90
2022-09-07T22:45:10.782Z,1.00
2022-09-07T22:47:37.367Z,1.00
2022-09-07T22:50:04.175Z,1.00
2022-09-07T22:52:30.844Z,1.00
2022-09-07T22:54:57.444Z,1.00
2022-09-07T22:57:24.047Z,1.00
2022-09-07T22:59:51.645Z,1.00
2022-09-07T23:02:18.258Z,1.00
2022-09-07T23:04:44.954Z,8.50
2022-09-07T23:07:11.774Z,14.30
2022-09-07T23:09:38.374Z,72.20
2022-09-07T23:12:05.067Z,92.10
2022-09-07T23:14:31.667Z,99.90
2022-09-07T23:16:58.375Z,99.90
2022-09-07T23:19:25.061Z,99.90
2022-09-07T23:21:51.770Z,99.90
2022-09-07T23:24:19.118Z,99.90
2022-09-07T23:26:46.872Z,99.90
2022-09-07T23:29:14.435Z,99.90
2022-09-07T23:31:41.821Z,99.90
2022-09-07T23:34:08.719Z,99.90
2022-09-07T23:36:35.620Z,99.90
2022-09-07T23:39:02.269Z,99.90
2022-09-07T23:41:28.987Z,99.90
2022-09-07T23:43:55.932Z,99.90
2022-09-07T23:46:23.224Z,99.90
2022-09-07T23:48:50.405Z,99.90
2022-09-07T23:51:22.731Z,99.90
2022-09-07T23:53:50.785Z,99.90
2022-09-07T23:56:17.441Z,99.90
2022-09-07T23:58:44.131Z,99.90
